Cairo, New York
Current Conditions -  °F | °C
As of 12:51 PM on Thursday 29 Jan 2015 (Local Time) from KALB Reporting Station
Overcast Overcast  
Wind Chill: 13°   Ceiling: 26000
Heat Index: 22°   Visibility: 10mi
Dew Point:   Wind: 7mph
Humidity: 42%   Direction: 160°SSE
Pressure: 30.18"   Gusts: NA
Location:  42.31°N, 74.01°W
Report Text: KALB 291751Z 16006KT 10SM FEW140 SCT180 OVC260 M06/M17 A3018 RMK AO2 PRESFR SLP224 4/004 933003 T10561167 11056 21200 58044
Loading
Personal Weather Stations






























Interactive Weather Map New forecast layout! Learn more

10-Day Weather Forecast

Advertisements
Track Severe Weather on mobile